サンパウロ/グアルーリョス の空港の天気 - METARとTAF

グアルーリョス国際空港 (サンパウロ) ( SBGR / GRU ) - ブラジル サンパウロ州サンパウロ市
飛行場実況気象(Metar)
観測時間08/11 04:00 BRT (08/11 07:00 UTC)
風向・風速東南東 2m/s
視程10km以上
天気現象
なし
気温14℃
湿度72%
気圧1017hPa
METARSBGR 110700Z 11003KT CAVOK 14/09 Q1017
過去の天気等 Google飛行場航空写真 Wunderground天気予報

過去48時間のMETAR

飛行場予報(TAF)
発表時間: 8/10 23:00 BRT (8/11 02:00 UTC)
予報対象時間: 11日3時 BRT ~ 12日9時 BRT
風向・風速静穏
視程10km以上
なし
11日6時 BRT から 確率 30% で
視程5000m
天気現象もや
11日8時 BRT ~ 11日10時 BRT に徐々に
風向・風速北北東 5m/s
11日10時 BRT ~ 11日12時 BRT に徐々に
風向・風速北西 5m/s
11日16時 BRT ~ 11日18時 BRT に徐々に
風向・風速静穏
11日21時 BRT ~ 11日23時 BRT に徐々に
風向・風速南南東 3m/s
全天の8割程度の雲 雲底高度 460m
12日4時 BRT ~ 12日6時 BRT に徐々に
風向・風速東南東 3m/s
全天の8割程度の雲 雲底高度 300m
TAF SBGR 110200Z 1106/1212 00000KT CAVOK TN13/1109Z TX28/1117Z
PROB30 1109/1111 5000 BR
BECMG 1111/1113 02010KT
BECMG 1113/1115 31009KT
BECMG 1119/1121 00000KT
BECMG 1200/1202 16006KT BKN015
BECMG 1207/1209 12005KT BKN010 RMK PGE